createdAt,value
2018-04-08T00:02:16.006Z,98612
2018-04-08T00:04:42.716Z,98608
2018-04-08T00:07:09.434Z,98606
2018-04-08T00:09:36.166Z,98608
2018-04-08T00:12:02.886Z,98600
2018-04-08T00:14:29.588Z,98604
2018-04-08T00:16:57.048Z,98603
2018-04-08T00:19:24.533Z,98601
2018-04-08T00:21:51.235Z,98599
2018-04-08T00:24:18.706Z,98601
2018-04-08T00:26:46.156Z,98598
2018-04-08T00:29:13.623Z,98597
2018-04-08T00:31:40.340Z,98595
2018-04-08T00:34:07.808Z,98593
2018-04-08T00:36:35.252Z,98592
2018-04-08T00:39:02.006Z,98591
2018-04-08T00:41:29.465Z,98589
2018-04-08T00:43:56.920Z,98594
2018-04-08T00:46:24.366Z,98598
2018-04-08T00:48:51.891Z,98592
2018-04-08T00:51:18.590Z,98594
2018-04-08T00:53:45.391Z,98594
2018-04-08T00:56:12.118Z,98590
2018-04-08T00:58:38.956Z,98588
2018-04-08T01:01:05.688Z,98594
2018-04-08T01:03:32.353Z,98593
2018-04-08T01:05:59.005Z,98589
2018-04-08T01:08:26.390Z,98582
2018-04-08T01:10:53.038Z,98580
2018-04-08T01:13:19.671Z,98583
2018-04-08T01:15:46.360Z,98579
2018-04-08T01:18:13.038Z,98581
2018-04-08T01:20:39.713Z,98577
2018-04-08T01:23:06.383Z,98582
2018-04-08T01:25:33.045Z,98581
2018-04-08T01:27:59.726Z,98571
2018-04-08T01:30:26.452Z,98571
2018-04-08T01:32:53.445Z,98570
2018-04-08T01:35:20.085Z,98568
2018-04-08T01:37:47.477Z,98570
2018-04-08T01:40:14.120Z,98567
2018-04-08T01:42:40.759Z,98568
2018-04-08T01:45:07.406Z,98573
2018-04-08T01:47:34.068Z,98571
2018-04-08T01:50:00.753Z,98569
2018-04-08T01:52:27.415Z,98563
2018-04-08T01:54:54.066Z,98570
2018-04-08T01:57:20.713Z,98569
2018-04-08T01:59:47.368Z,98570
2018-04-08T02:02:14.753Z,98565
2018-04-08T02:04:41.380Z,98561
2018-04-08T02:07:08.046Z,98562
2018-04-08T02:09:34.683Z,98564
2018-04-08T02:12:01.381Z,98571
2018-04-08T02:14:28.780Z,98568
2018-04-08T02:16:55.473Z,98572
2018-04-08T02:19:22.881Z,98578
2018-04-08T02:21:49.515Z,98569
2018-04-08T02:24:16.173Z,98576
2018-04-08T02:26:42.843Z,98576
2018-04-08T02:29:10.266Z,98577
2018-04-08T02:31:36.916Z,98577
2018-04-08T02:34:03.543Z,98580
2018-04-08T02:36:30.221Z,98580
2018-04-08T02:38:56.890Z,98575
2018-04-08T02:41:23.548Z,98572
2018-04-08T02:43:50.193Z,98575
2018-04-08T02:46:16.862Z,98573
2018-04-08T02:48:44.264Z,98568
2018-04-08T02:51:10.916Z,98561
2018-04-08T02:53:37.574Z,98565
2018-04-08T02:56:04.228Z,98561
2018-04-08T02:58:31.616Z,98565
2018-04-08T03:00:58.287Z,98558
2018-04-08T03:03:24.991Z,98560
2018-04-08T03:05:51.648Z,98558
2018-04-08T03:08:18.301Z,98558
2018-04-08T03:10:44.958Z,98552
2018-04-08T03:13:11.603Z,98556
2018-04-08T03:15:39.018Z,98554
2018-04-08T03:18:05.688Z,98555
2018-04-08T03:20:32.343Z,98547
2018-04-08T03:22:59.741Z,98550
2018-04-08T03:25:26.399Z,98549
2018-04-08T03:27:53.045Z,98547
2018-04-08T03:30:19.736Z,98544
2018-04-08T03:32:46.426Z,98548
2018-04-08T03:35:13.158Z,98541
2018-04-08T03:37:39.869Z,98542
2018-04-08T03:40:06.594Z,98544
2018-04-08T03:42:33.344Z,98539
2018-04-08T03:45:00.056Z,98547
2018-04-08T03:47:26.786Z,98542
2018-04-08T03:49:53.504Z,98539
2018-04-08T03:52:20.295Z,98541
2018-04-08T03:54:47.066Z,98542
2018-04-08T03:57:13.845Z,98545
2018-04-08T03:59:41.339Z,98547
2018-04-08T04:02:08.078Z,98550
2018-04-08T04:04:34.776Z,98556
2018-04-08T04:07:02.348Z,98550
2018-04-08T04:09:29.796Z,98553
2018-04-08T04:11:57.302Z,98554
2018-04-08T04:14:24.088Z,98556
2018-04-08T04:16:51.592Z,98565
2018-04-08T04:19:36.699Z,98560
2018-04-08T04:22:22.461Z,98552
2018-04-08T04:25:04.201Z,98557
2018-04-08T04:27:31.706Z,98562
2018-04-08T04:29:58.488Z,98561
2018-04-08T04:32:25.301Z,98563
2018-04-08T04:34:52.088Z,98555
2018-04-08T04:37:18.836Z,98554
2018-04-08T04:39:45.560Z,98560
2018-04-08T04:42:12.261Z,98551
2018-04-08T04:44:38.954Z,98554
2018-04-08T04:47:05.651Z,98556
2018-04-08T04:49:32.364Z,98557
2018-04-08T04:51:59.080Z,98558
2018-04-08T04:54:25.795Z,98560
2018-04-08T04:56:52.563Z,98560
2018-04-08T04:59:19.290Z,98562
2018-04-08T05:01:46.107Z,98558
2018-04-08T05:04:13.553Z,98560
2018-04-08T05:06:40.990Z,98565
2018-04-08T05:09:07.754Z,98568
2018-04-08T05:11:35.203Z,98574
2018-04-08T05:14:02.656Z,98574
2018-04-08T05:16:29.361Z,98574
2018-04-08T05:18:56.077Z,98567
2018-04-08T05:21:22.810Z,98566
2018-04-08T05:23:49.496Z,98564
2018-04-08T05:26:16.261Z,98567
2018-04-08T05:28:43.711Z,98567
2018-04-08T05:31:11.146Z,98561
2018-04-08T05:33:37.848Z,98561
2018-04-08T05:36:04.543Z,98563
2018-04-08T05:38:31.977Z,98566
2018-04-08T05:40:58.701Z,98565
2018-04-08T05:43:25.454Z,98561
2018-04-08T05:45:52.171Z,98561
2018-04-08T05:48:18.880Z,98563
2018-04-08T05:50:45.602Z,98567
2018-04-08T05:53:13.021Z,98520
2018-04-08T05:55:39.723Z,98573
2018-04-08T05:58:06.404Z,98572
2018-04-08T06:00:33.021Z,98575
2018-04-08T06:02:59.681Z,98580
2018-04-08T06:05:26.328Z,98572
2018-04-08T06:07:53.018Z,98572
2018-04-08T06:10:19.701Z,98569
2018-04-08T06:12:46.386Z,98570
2018-04-08T06:15:13.106Z,98568
2018-04-08T06:17:39.889Z,98575
2018-04-08T06:20:06.601Z,98574
2018-04-08T06:22:33.301Z,98580
2018-04-08T06:25:00.057Z,98577
2018-04-08T06:27:27.541Z,98574
2018-04-08T06:29:54.254Z,98578
2018-04-08T06:32:20.995Z,98576
2018-04-08T06:34:48.468Z,98575
2018-04-08T06:37:15.188Z,98577
2018-04-08T06:39:42.677Z,98573
2018-04-08T06:42:09.468Z,98570
2018-04-08T06:44:36.209Z,98569
2018-04-08T06:47:03.708Z,98576
2018-04-08T06:49:30.453Z,98567
2018-04-08T06:51:57.936Z,98566
2018-04-08T06:54:24.623Z,98567
2018-04-08T06:56:52.068Z,98569
2018-04-08T06:59:19.598Z,98568
2018-04-08T07:01:46.334Z,98567
2018-04-08T07:04:13.054Z,98564
2018-04-08T07:06:39.825Z,98563
2018-04-08T07:09:06.543Z,98562
2018-04-08T07:11:33.285Z,98562
2018-04-08T07:13:59.987Z,98566
2018-04-08T07:16:26.733Z,98557
2018-04-08T07:18:53.426Z,98556
2018-04-08T07:21:20.156Z,98555
2018-04-08T07:23:46.915Z,98554
2018-04-08T07:26:14.385Z,98552
2018-04-08T07:28:41.808Z,98551
2018-04-08T07:31:08.542Z,98555
2018-04-08T07:33:35.301Z,98557
2018-04-08T07:36:02.802Z,98555
2018-04-08T07:38:29.508Z,98557
2018-04-08T07:40:56.255Z,98556
2018-04-08T07:43:23.728Z,98558
2018-04-08T07:45:50.401Z,98557
2018-04-08T07:48:17.108Z,98551
2018-04-08T07:50:43.766Z,98549
2018-04-08T07:53:10.473Z,98550
2018-04-08T07:55:37.121Z,98547
2018-04-08T07:58:03.768Z,98543
2018-04-08T08:00:30.445Z,98548
2018-04-08T08:02:57.085Z,98545
2018-04-08T08:05:23.747Z,98545
2018-04-08T08:07:51.170Z,98546
2018-04-08T08:10:17.881Z,98553
2018-04-08T08:12:44.535Z,98552
2018-04-08T08:15:11.178Z,98552
2018-04-08T08:17:37.828Z,98548
2018-04-08T08:20:04.520Z,98554
2018-04-08T08:22:35.846Z,98552
2018-04-08T08:25:03.240Z,98544
2018-04-08T08:27:29.898Z,98551
2018-04-08T08:29:56.558Z,98549
2018-04-08T08:32:23.220Z,98551
2018-04-08T08:34:49.873Z,98549
2018-04-08T08:37:16.646Z,98546
2018-04-08T08:39:43.353Z,98544
2018-04-08T08:42:10.018Z,98544
2018-04-08T08:44:36.690Z,98536
2018-04-08T08:47:04.117Z,98536
2018-04-08T08:49:30.800Z,98532
2018-04-08T08:51:58.194Z,98526
2018-04-08T08:54:24.889Z,98528
2018-04-08T08:56:52.313Z,98536
2018-04-08T08:59:18.979Z,98531
2018-04-08T09:01:46.412Z,98522
2018-04-08T09:04:13.113Z,98521
2018-04-08T09:06:39.822Z,98519
2018-04-08T09:09:07.214Z,98518
2018-04-08T09:11:33.869Z,98509
2018-04-08T09:14:00.566Z,98511
2018-04-08T09:16:27.263Z,98505
2018-04-08T09:18:54.828Z,98509
2018-04-08T09:24:24.485Z,98504
2018-04-08T09:26:51.233Z,98499
2018-04-08T09:29:17.927Z,98491
2018-04-08T09:31:44.633Z,98494
2018-04-08T09:34:11.333Z,98493
2018-04-08T09:36:38.731Z,98489
2018-04-08T09:39:05.441Z,98483
2018-04-08T09:41:32.106Z,98490
2018-04-08T09:43:58.761Z,98489
2018-04-08T09:46:25.469Z,98487
2018-04-08T09:48:52.136Z,98483
2018-04-08T09:51:18.806Z,98466
2018-04-08T09:53:46.240Z,98467
2018-04-08T09:56:12.941Z,98465
2018-04-08T09:58:41.526Z,98465
2018-04-08T10:01:25.983Z,98466
2018-04-08T10:03:52.725Z,98459
2018-04-08T10:06:19.426Z,98458
2018-04-08T10:08:46.901Z,98458
2018-04-08T10:11:13.680Z,98451
2018-04-08T10:13:40.342Z,98455
2018-04-08T10:16:08.173Z,98449
2018-04-08T10:18:34.913Z,98443
2018-04-08T10:21:01.608Z,98441
2018-04-08T10:23:28.313Z,98443
2018-04-08T10:25:55.001Z,98434
2018-04-08T10:28:21.653Z,98436
2018-04-08T10:30:48.317Z,98439
2018-04-08T10:33:16.473Z,98440
2018-04-08T10:35:43.153Z,98436
2018-04-08T10:38:10.599Z,98427
2018-04-08T10:40:37.278Z,98427
2018-04-08T10:43:03.933Z,98432
2018-04-08T10:45:30.581Z,98422
2018-04-08T10:47:57.286Z,98425
2018-04-08T10:50:23.971Z,98420
2018-04-08T10:52:50.687Z,98418
2018-04-08T10:55:17.381Z,98417
2018-04-08T10:57:44.861Z,98294
2018-04-08T11:00:11.561Z,98425
2018-04-08T11:02:38.228Z,98423
2018-04-08T11:05:04.942Z,98414
2018-04-08T11:07:32.361Z,98410
2018-04-08T11:09:59.040Z,98392
2018-04-08T11:12:26.480Z,98383
2018-04-08T11:14:53.196Z,98389
2018-04-08T11:17:19.843Z,98375
2018-04-08T11:19:46.516Z,98390
2018-04-08T11:22:13.897Z,98390
2018-04-08T11:24:40.628Z,98384
2018-04-08T11:27:07.364Z,98386
2018-04-08T11:29:34.080Z,98367
2018-04-08T11:32:01.514Z,98367
2018-04-08T11:34:28.207Z,98369
2018-04-08T11:36:54.865Z,98362
2018-04-08T11:39:21.546Z,98356
2018-04-08T11:41:48.207Z,98348
2018-04-08T11:44:14.858Z,98334
2018-04-08T11:46:41.576Z,98351
2018-04-08T11:49:09.031Z,98334
2018-04-08T11:51:36.435Z,98331
2018-04-08T11:54:03.093Z,98327
2018-04-08T11:56:29.748Z,98318
2018-04-08T11:58:57.208Z,98310
2018-04-08T12:01:24.678Z,98316
2018-04-08T12:03:52.134Z,98307
2018-04-08T12:06:19.566Z,98310
2018-04-08T12:08:46.213Z,98306
2018-04-08T12:11:13.619Z,98300
2018-04-08T12:13:40.316Z,98300
2018-04-08T12:16:07.841Z,98298
2018-04-08T12:18:34.553Z,98291
2018-04-08T12:21:01.260Z,98284
2018-04-08T12:23:27.953Z,98281
2018-04-08T12:25:54.654Z,98282
2018-04-08T12:28:21.481Z,98275
2018-04-08T12:30:48.261Z,98283
2018-04-08T12:33:15.181Z,98275
2018-04-08T12:35:41.854Z,98279
2018-04-08T12:38:08.514Z,98265
2018-04-08T12:40:35.225Z,98270
2018-04-08T12:43:01.886Z,98264
2018-04-08T12:45:28.549Z,98265
2018-04-08T12:47:56.008Z,98263
2018-04-08T12:50:22.706Z,98256
2018-04-08T12:52:49.401Z,98253
2018-04-08T12:55:16.056Z,98249
2018-04-08T12:57:42.726Z,98243
2018-04-08T13:00:09.380Z,98239
2018-04-08T13:02:36.826Z,98242
2018-04-08T13:05:03.476Z,98238
2018-04-08T13:07:30.881Z,98229
2018-04-08T13:09:57.558Z,98226
2018-04-08T13:12:25.008Z,98190
2018-04-08T13:14:51.675Z,98216
2018-04-08T13:17:19.066Z,98219
2018-04-08T13:19:45.796Z,98205
2018-04-08T13:22:12.446Z,98209
2018-04-08T13:24:39.133Z,98200
2018-04-08T13:27:06.551Z,98194
2018-04-08T13:29:33.238Z,98201
2018-04-08T13:32:00.629Z,98194
2018-04-08T13:34:27.288Z,98192
2018-04-08T13:36:53.980Z,98193
2018-04-08T13:39:20.637Z,98188
2018-04-08T13:41:47.305Z,98178
2018-04-08T13:44:13.946Z,98174
2018-04-08T13:46:40.605Z,98173
2018-04-08T13:49:08.146Z,98172
2018-04-08T13:51:34.928Z,98170
2018-04-08T13:54:01.613Z,98168
2018-04-08T13:56:29.071Z,98161
2018-04-08T13:58:56.661Z,98154
2018-04-08T14:01:24.101Z,98150
2018-04-08T14:03:50.780Z,98145
2018-04-08T14:06:17.503Z,98140
2018-04-08T14:08:44.973Z,98136
2018-04-08T14:11:11.653Z,98128
2018-04-08T14:13:39.426Z,98127
2018-04-08T14:16:06.112Z,98120
2018-04-08T14:18:32.755Z,98118
2018-04-08T14:21:00.449Z,98108
2018-04-08T14:23:27.107Z,98105
2018-04-08T14:25:53.781Z,98103
2018-04-08T14:28:20.451Z,98097
2018-04-08T14:30:47.106Z,98096
2018-04-08T14:33:13.793Z,98097
2018-04-08T14:35:40.537Z,98092
2018-04-08T14:38:07.953Z,98083
2018-04-08T14:40:34.634Z,98088
2018-04-08T14:43:01.333Z,98093
2018-04-08T14:45:28.031Z,98092
2018-04-08T14:47:54.714Z,98095
2018-04-08T14:50:21.396Z,98091
2018-04-08T14:52:48.083Z,98084
2018-04-08T14:55:14.828Z,98084
2018-04-08T14:57:41.545Z,98075
2018-04-08T15:00:08.288Z,98076
2018-04-08T15:02:35.018Z,98077
2018-04-08T15:05:01.729Z,98079
2018-04-08T15:07:28.446Z,98076
2018-04-08T15:09:55.865Z,98074
2018-04-08T15:12:22.569Z,98067
2018-04-08T15:14:49.286Z,98058
2018-04-08T15:17:15.992Z,98051
2018-04-08T15:19:42.661Z,98039
2018-04-08T15:22:09.393Z,98027
2018-04-08T15:24:36.793Z,98015
2018-04-08T15:27:03.467Z,98000
2018-04-08T15:29:30.128Z,97993
2018-04-08T15:31:57.543Z,97977
2018-04-08T15:34:24.241Z,97973
2018-04-08T15:36:51.678Z,97961
2018-04-08T15:39:18.341Z,97951
2018-04-08T15:41:47.776Z,97951
2018-04-08T15:44:15.188Z,97962
2018-04-08T15:46:42.358Z,97970
2018-04-08T15:49:09.188Z,97973
2018-04-08T15:51:35.922Z,97977
2018-04-08T15:54:02.563Z,97979
2018-04-08T15:56:29.273Z,97982
2018-04-08T15:58:56.728Z,97980
2018-04-08T16:01:25.108Z,97978
2018-04-08T16:03:52.533Z,97981
2018-04-08T16:06:19.193Z,97978
2018-04-08T16:08:45.900Z,97987
2018-04-08T16:11:12.581Z,97977
2018-04-08T16:13:39.985Z,97980
2018-04-08T16:16:06.687Z,97981
2018-04-08T16:18:33.360Z,97986
2018-04-08T16:21:00.009Z,97999
2018-04-08T16:23:26.666Z,98002
2018-04-08T16:25:53.318Z,98004
2018-04-08T16:28:20.743Z,98011
2018-04-08T16:30:47.446Z,98008
2018-04-08T16:33:14.154Z,98019
2018-04-08T16:35:41.621Z,98017
2018-04-08T16:38:09.053Z,98014
2018-04-08T16:40:35.699Z,98015
2018-04-08T16:43:03.176Z,98020
2018-04-08T16:45:29.840Z,98028
2018-04-08T16:47:56.523Z,98025
2018-04-08T16:50:23.188Z,98028
2018-04-08T16:52:49.833Z,98034
2018-04-08T16:55:16.533Z,98031
2018-04-08T16:57:44.228Z,98037
2018-04-08T17:00:11.013Z,98043
2018-04-08T17:02:38.349Z,98040
2018-04-08T17:05:05.061Z,98046
2018-04-08T17:07:31.723Z,98048
2018-04-08T17:09:58.388Z,98041
2018-04-08T17:12:25.081Z,98041
2018-04-08T17:14:52.168Z,98029
2018-04-08T17:17:18.861Z,98031
2018-04-08T17:19:45.564Z,98034
2018-04-08T17:22:13.731Z,98036
2018-04-08T17:24:41.448Z,98038
2018-04-08T17:27:08.161Z,98035
2018-04-08T17:29:37.600Z,98027
2018-04-08T17:32:05.271Z,98029
2018-04-08T17:34:32.053Z,98023
2018-04-08T17:36:59.526Z,98030
2018-04-08T17:39:26.193Z,98034
2018-04-08T17:41:52.914Z,98032
2018-04-08T17:44:19.613Z,98038
2018-04-08T17:46:47.840Z,98044
2018-04-08T17:49:14.526Z,98045
2018-04-08T17:51:41.213Z,98042
2018-04-08T17:54:08.876Z,98049
2018-04-08T17:56:35.621Z,98047
2018-04-08T17:59:02.644Z,98050
2018-04-08T18:01:29.306Z,98051
2018-04-08T18:03:55.980Z,98049
2018-04-08T18:06:22.687Z,98052
2018-04-08T18:08:49.392Z,98062
2018-04-08T18:11:16.133Z,98065
2018-04-08T18:13:42.813Z,98067
2018-04-08T18:16:09.484Z,98067
2018-04-08T18:18:36.156Z,98067
2018-04-08T18:21:02.825Z,98064
2018-04-08T18:23:29.521Z,98061
2018-04-08T18:25:56.981Z,98064
2018-04-08T18:28:23.685Z,98060
2018-04-08T18:30:50.376Z,98059
2018-04-08T18:33:17.074Z,98057
2018-04-08T18:35:44.476Z,98052
2018-04-08T18:38:11.156Z,98043
2018-04-08T18:40:37.888Z,98046
2018-04-08T18:43:04.582Z,98041
2018-04-08T18:45:31.312Z,98035
2018-04-08T18:47:58.381Z,98030
2018-04-08T18:50:25.075Z,98031
2018-04-08T18:52:52.466Z,98031
2018-04-08T18:55:19.200Z,98033
2018-04-08T18:57:45.913Z,98030
2018-04-08T19:00:13.341Z,98025
2018-04-08T19:02:40.068Z,98019
2018-04-08T19:05:06.796Z,98021
2018-04-08T19:07:33.475Z,98019
2018-04-08T19:10:00.909Z,98015
2018-04-08T19:12:27.603Z,98010
2018-04-08T19:15:01.319Z,98006
2018-04-08T19:17:36.467Z,97996
2018-04-08T19:20:03.477Z,97989
2018-04-08T19:22:30.197Z,97986
2018-04-08T19:24:57.745Z,97986
2018-04-08T19:27:31.406Z,97981
2018-04-08T19:29:59.146Z,97990
2018-04-08T19:32:25.942Z,97977
2018-04-08T19:34:52.725Z,97973
2018-04-08T19:37:19.514Z,97967
2018-04-08T19:39:46.299Z,97963
2018-04-08T19:42:13.995Z,97954
2018-04-08T19:44:40.767Z,97963
2018-04-08T19:47:07.665Z,97967
2018-04-08T19:49:34.419Z,97970
2018-04-08T19:52:01.201Z,97972
2018-04-08T19:54:28.723Z,97965
2018-04-08T19:56:56.256Z,97968
2018-04-08T19:59:23.022Z,97959
2018-04-08T20:01:49.804Z,97958
2018-04-08T20:04:17.448Z,97957
2018-04-08T20:06:44.734Z,97953
2018-04-08T20:09:11.544Z,97959
2018-04-08T20:11:38.393Z,97958
2018-04-08T20:14:06.823Z,97950
2018-04-08T20:16:34.371Z,97942
2018-04-08T20:19:01.171Z,97933
2018-04-08T20:21:29.058Z,97934
2018-04-08T20:23:56.559Z,97934
2018-04-08T20:26:23.380Z,97934
2018-04-08T20:28:50.087Z,97933
2018-04-08T20:31:17.502Z,97939
2018-04-08T20:33:44.216Z,97936
2018-04-08T20:36:11.160Z,97931
2018-04-08T20:38:37.866Z,97928
2018-04-08T20:41:06.225Z,97922
2018-04-08T20:43:33.000Z,97919
2018-04-08T20:45:59.746Z,97919
2018-04-08T20:48:28.405Z,97923
2018-04-08T20:50:55.941Z,97918
2018-04-08T20:53:23.629Z,97916
2018-04-08T20:55:51.084Z,97916
2018-04-08T20:58:19.429Z,97916
2018-04-08T21:00:46.214Z,97919
2018-04-08T21:03:12.890Z,97920
2018-04-08T21:05:39.621Z,97929
2018-04-08T21:08:06.333Z,97930
2018-04-08T21:10:33.122Z,97921
2018-04-08T21:12:59.833Z,97921
2018-04-08T21:15:26.558Z,97919
2018-04-08T21:17:53.222Z,97932
2018-04-08T21:20:19.890Z,97939
2018-04-08T21:22:46.809Z,97937
2018-04-08T21:25:13.595Z,97944
2018-04-08T21:27:41.043Z,97940
2018-04-08T21:30:08.489Z,97923
2018-04-08T21:32:35.144Z,97916
2018-04-08T21:35:02.581Z,97913
2018-04-08T21:37:29.256Z,97904
2018-04-08T21:39:55.989Z,97888
2018-04-08T21:42:22.704Z,97877
2018-04-08T21:44:50.144Z,97879
2018-04-08T21:47:17.594Z,97889
2018-04-08T21:49:44.478Z,97901
2018-04-08T21:52:11.176Z,97907
2018-04-08T21:54:37.828Z,97906
2018-04-08T21:57:05.224Z,97905
2018-04-08T21:59:31.893Z,97897
2018-04-08T22:01:58.756Z,97900
2018-04-08T22:04:25.469Z,97900
2018-04-08T22:06:52.117Z,97891
2018-04-08T22:09:18.873Z,97886
2018-04-08T22:11:45.628Z,97875
2018-04-08T22:14:13.102Z,97870
2018-04-08T22:16:40.941Z,97878
2018-04-08T22:19:07.681Z,97890
2018-04-08T22:21:35.963Z,97891
2018-04-08T22:24:02.718Z,97889
2018-04-08T22:26:30.261Z,97898
2018-04-08T22:28:56.980Z,97909
2018-04-08T22:31:23.721Z,97921
2018-04-08T22:33:50.448Z,97927
2018-04-08T22:36:17.224Z,97929
2018-04-08T22:38:44.728Z,97927
2018-04-08T22:41:11.468Z,97934
2018-04-08T22:43:38.191Z,97938
2018-04-08T22:46:05.043Z,97948
2018-04-08T22:48:31.744Z,97946
2018-04-08T22:50:59.276Z,97938
2018-04-08T22:53:26.099Z,97943
2018-04-08T22:55:52.843Z,97953
2018-04-08T22:58:19.608Z,97953
2018-04-08T23:00:46.348Z,97937
2018-04-08T23:03:13.081Z,97913
2018-04-08T23:05:39.823Z,97884
2018-04-08T23:08:06.561Z,97877
2018-04-08T23:10:33.360Z,97855
2018-04-08T23:13:00.093Z,97864
2018-04-08T23:15:26.874Z,97900
2018-04-08T23:17:53.554Z,97935
2018-04-08T23:20:20.201Z,97952
2018-04-08T23:22:46.996Z,97942
2018-04-08T23:25:13.666Z,97939
2018-04-08T23:27:41.073Z,97918
2018-04-08T23:30:07.761Z,97890
2018-04-08T23:32:35.143Z,97863
2018-04-08T23:35:01.812Z,97854
2018-04-08T23:37:28.489Z,97851
2018-04-08T23:39:55.884Z,97848
2018-04-08T23:42:22.550Z,97847
2018-04-08T23:44:49.392Z,97832
2018-04-08T23:47:16.089Z,97817
2018-04-08T23:49:42.781Z,97813
2018-04-08T23:52:09.456Z,97814
2018-04-08T23:54:36.116Z,97829
2018-04-08T23:57:02.756Z,97831
2018-04-08T23:59:29.403Z,97844
